Time;durP1;ratioP1;P1;durP2;ratioP2;P2;SDS_P1;SDS_P2;PMS_P1;PMS_P2;Temp;Humidity;BMP_temperature;BMP_pressure;BME280_temperature;BME280_humidity;BME280_pressure;Samples;Min_cycle;Max_cycle;Signal;HPM_P1;HPM_P2
2023/09/12 00:02:15;;;;;;;10.50;9.40;;;;;;;;;;6268281;22;20744;-94
2023/09/12 00:04:50;;;;;;;10.57;8.37;;;;;;;;;;6296272;22;20352;-94
2023/09/12 00:07:16;;;;;;;12.13;7.60;;;;;;;;;;6293566;22;20436;-93
2023/09/12 00:09:42;;;;;;;10.00;8.67;;;;;;;;;;6269418;22;22315;-93
2023/09/12 00:12:09;;;;;;;10.93;9.33;;;;;;;;;;6234873;23;20401;-95
2023/09/12 00:14:36;;;;;;;11.97;8.73;;;;;;;;;;6205841;23;20464;-94
2023/09/12 00:17:02;;;;;;;14.53;8.03;;;;;;;;;;6230760;23;20417;-94
2023/09/12 00:19:55;;;;;;;11.43;9.07;;;;;;;;;;6209482;22;20386;-94
2023/09/12 00:22:21;;;;;;;11.50;8.70;;;;;;;;;;6249144;23;20468;-93
2023/09/12 00:24:48;;;;;;;17.60;8.13;;;;;;;;;;6205781;23;20886;-94
2023/09/12 00:27:14;;;;;;;10.07;8.37;;;;;;;;;;6204823;23;20390;-95
2023/09/12 00:29:41;;;;;;;16.53;9.03;;;;;;;;;;6209625;23;20398;-95
2023/09/12 00:32:07;;;;;;;17.30;8.40;;;;;;;;;;6229579;23;20382;-95
2023/09/12 00:34:34;;;;;;;17.20;9.40;;;;;;;;;;6208230;23;20401;-95
2023/09/12 00:37:00;;;;;;;18.73;9.50;;;;;;;;;;6232340;23;20735;-95
2023/09/12 00:39:26;;;;;;;13.80;9.37;;;;;;;;;;6206689;23;20477;-94
2023/09/12 00:41:52;;;;;;;19.03;8.70;;;;;;;;;;6207211;23;20632;-95
2023/09/12 00:44:18;;;;;;;9.40;8.40;;;;;;;;;;6239745;22;20369;-95
2023/09/12 00:46:48;;;;;;;14.20;8.40;;;;;;;;;;6265401;22;20366;-95
2023/09/12 00:49:30;;;;;;;9.93;8.93;;;;;;;;;;6270961;22;20428;-94
2023/09/12 00:52:16;;;;;;;12.57;8.63;;;;;;;;;;6259791;22;20407;-93
2023/09/12 00:54:42;;;;;;;11.17;8.23;;;;;;;;;;6269315;22;20451;-94
2023/09/12 00:57:08;;;;;;;9.43;8.03;;;;;;;;;;6270793;22;20450;-92
2023/09/12 00:59:34;;;;;;;14.90;7.70;;;;;;;;;;6267807;22;20368;-92
2023/09/12 01:02:00;;;;;;;10.23;8.23;;;;;;;;;;6234037;23;20394;-95
2023/09/12 01:04:28;;;;;;;9.57;8.53;;;;;;;;;;6206668;22;20378;-94
2023/09/12 01:06:53;;;;;;;9.70;8.70;;;;;;;;;;6208197;23;20466;-94
2023/09/12 01:09:21;;;;;;;12.30;8.30;;;;;;;;;;6207017;22;20371;-94
2023/09/12 01:11:47;;;;;;;10.50;8.60;;;;;;;;;;6206723;23;20449;-94
2023/09/12 01:14:13;;;;;;;9.63;8.63;;;;;;;;;;6205880;23;20390;-94
2023/09/12 01:16:39;;;;;;;15.97;7.93;;;;;;;;;;6205511;23;20389;-94
2023/09/12 01:19:05;;;;;;;13.60;8.47;;;;;;;;;;6230175;22;20390;-94
2023/09/12 01:21:36;;;;;;;11.00;7.57;;;;;;;;;;6207409;23;20877;-93
2023/09/12 01:27:18;;;;;;;8.63;7.70;;;;;;;;;;6256321;22;20377;-94
2023/09/12 01:29:48;;;;;;;8.90;7.30;;;;;;;;;;6233515;23;20457;-93
2023/09/12 01:32:15;;;;;;;15.00;8.90;;;;;;;;;;6218072;22;20368;-95
2023/09/12 01:34:41;;;;;;;11.30;8.70;;;;;;;;;;6294968;22;20430;-94
2023/09/12 01:37:08;;;;;;;10.73;7.97;;;;;;;;;;6294533;22;20907;-94
2023/09/12 01:39:34;;;;;;;11.40;8.03;;;;;;;;;;6294199;22;20376;-94
2023/09/12 01:42:00;;;;;;;12.97;8.77;;;;;;;;;;6293995;22;20422;-94
2023/09/12 01:44:31;;;;;;;12.30;8.23;;;;;;;;;;6232592;22;20378;-94
2023/09/12 01:46:57;;;;;;;14.33;7.57;;;;;;;;;;6208085;23;20381;-94
2023/09/12 01:49:25;;;;;;;11.20;8.60;;;;;;;;;;6208566;22;20366;-94
2023/09/12 01:51:51;;;;;;;10.60;8.30;;;;;;;;;;6167182;23;20978;-95
2023/09/12 01:54:17;;;;;;;10.30;7.57;;;;;;;;;;6118387;23;20420;-93
2023/09/12 01:56:43;;;;;;;8.90;7.73;;;;;;;;;;6117765;23;20402;-94
2023/09/12 02:02:12;;;;;;;10.27;8.50;;;;;;;;;;6125416;23;20400;-93
2023/09/12 02:04:40;;;;;;;11.53;7.37;;;;;;;;;;6117324;23;20397;-93
2023/09/12 02:07:06;;;;;;;9.50;7.73;;;;;;;;;;6137040;23;20975;-93
2023/09/12 02:09:36;;;;;;;10.67;7.10;;;;;;;;;;6115716;23;20428;-93
2023/09/12 02:12:02;;;;;;;11.03;7.77;;;;;;;;;;6114458;23;20448;-93
2023/09/12 02:14:28;;;;;;;13.53;8.67;;;;;;;;;;6126080;23;20361;-94
2023/09/12 02:16:55;;;;;;;11.30;8.40;;;;;;;;;;6204561;23;20394;-94
2023/09/12 02:19:23;;;;;;;13.60;8.80;;;;;;;;;;6180818;23;20748;-93
2023/09/12 02:21:49;;;;;;;11.23;8.67;;;;;;;;;;6181955;22;20427;-93
2023/09/12 02:24:17;;;;;;;10.40;8.90;;;;;;;;;;6239439;22;20377;-92
2023/09/12 02:26:44;;;;;;;13.87;9.43;;;;;;;;;;6241132;22;20373;-93
2023/09/12 02:29:55;;;;;;;;;;;;;;;;;;;;;
2023/09/12 02:32:21;;;;;;;9.77;7.67;;;;;;;;;;6289393;22;20415;-93
2023/09/12 02:34:47;;;;;;;10.27;9.27;;;;;;;;;;6238157;22;20388;-93
2023/09/12 02:37:13;;;;;;;12.23;8.83;;;;;;;;;;6241684;22;20390;-93
2023/09/12 02:39:39;;;;;;;11.43;9.13;;;;;;;;;;6238770;22;20399;-93
2023/09/12 02:42:05;;;;;;;10.93;8.00;;;;;;;;;;6240202;22;20373;-94
2023/09/12 02:44:31;;;;;;;7.87;7.10;;;;;;;;;;6239788;22;20396;-93
2023/09/12 02:46:58;;;;;;;10.60;7.57;;;;;;;;;;6240056;22;20460;-93
2023/09/12 02:49:24;;;;;;;10.73;8.27;;;;;;;;;;6236836;22;20623;-92
2023/09/12 02:51:50;;;;;;;10.83;8.80;;;;;;;;;;6239707;22;20758;-93
2023/09/12 02:54:16;;;;;;;11.80;9.00;;;;;;;;;;6238908;22;20416;-93
2023/09/12 02:56:43;;;;;;;10.67;9.57;;;;;;;;;;6242356;22;20385;-93
2023/09/12 02:59:09;;;;;;;11.37;9.10;;;;;;;;;;6237099;22;20468;-94
2023/09/12 03:04:11;;;;;;;13.37;9.27;;;;;;;;;;6321770;22;20441;-94
2023/09/12 03:06:38;;;;;;;16.73;8.63;;;;;;;;;;6271239;22;20384;-94
2023/09/12 03:09:11;;;;;;;10.63;8.70;;;;;;;;;;6274943;22;20419;-96
2023/09/12 03:11:37;;;;;;;10.70;7.87;;;;;;;;;;6302770;22;20396;-96
2023/09/12 03:14:03;;;;;;;11.07;8.43;;;;;;;;;;6277298;22;20453;-96
2023/09/12 03:16:29;;;;;;;9.13;7.37;;;;;;;;;;6277254;22;20422;-96
2023/09/12 03:19:02;;;;;;;8.30;7.50;;;;;;;;;;6239368;23;20477;-96
2023/09/12 03:21:28;;;;;;;10.30;8.60;;;;;;;;;;6214976;23;20421;-96
2023/09/12 03:23:54;;;;;;;10.07;8.20;;;;;;;;;;6211297;23;20458;-96
2023/09/12 03:26:21;;;;;;;11.40;8.70;;;;;;;;;;6211944;23;20433;-96
2023/09/12 03:28:50;;;;;;;11.67;7.97;;;;;;;;;;6212774;22;20493;-96
2023/09/12 03:31:18;;;;;;;12.17;8.17;;;;;;;;;;6214947;22;20432;-95
2023/09/12 03:33:50;;;;;;;11.30;8.57;;;;;;;;;;6237547;22;20382;-96
2023/09/12 03:36:33;;;;;;;9.67;8.40;;;;;;;;;;6265561;22;20370;-96
2023/09/12 03:38:59;;;;;;;9.57;8.30;;;;;;;;;;6239073;23;20456;-96
2023/09/12 03:41:27;;;;;;;8.40;7.50;;;;;;;;;;6264421;22;20393;-96
2023/09/12 03:43:54;;;;;;;10.00;8.50;;;;;;;;;;6265308;22;20393;-96
2023/09/12 03:46:20;;;;;;;8.73;7.87;;;;;;;;;;6265072;22;20422;-96
2023/09/12 03:48:46;;;;;;;8.63;7.73;;;;;;;;;;6269967;22;20425;-96
2023/09/12 03:51:13;;;;;;;12.63;7.97;;;;;;;;;;6275917;22;20432;-96
2023/09/12 03:53:39;;;;;;;10.00;7.63;;;;;;;;;;6276285;22;20404;-96
2023/09/12 03:56:07;;;;;;;9.50;8.30;;;;;;;;;;6278210;22;20380;-96
2023/09/12 03:58:33;;;;;;;15.13;8.30;;;;;;;;;;6277554;22;20368;-96
2023/09/12 04:01:10;;;;;;;12.07;8.20;;;;;;;;;;6277503;22;20397;-96
2023/09/12 04:03:36;;;;;;;9.13;8.23;;;;;;;;;;6278349;22;20407;-96
2023/09/12 04:06:02;;;;;;;9.80;8.80;;;;;;;;;;6271399;22;20447;-96
2023/09/12 04:08:29;;;;;;;8.40;7.60;;;;;;;;;;6269970;22;20512;-96
2023/09/12 04:18:42;;;;;;;14.43;8.30;;;;;;;;;;6292231;22;20511;-94
2023/09/12 04:21:08;;;;;;;9.33;8.10;;;;;;;;;;6238802;22;20393;-94
2023/09/12 04:23:34;;;;;;;9.70;8.07;;;;;;;;;;6240295;22;20399;-94
2023/09/12 04:26:03;;;;;;;13.50;9.17;;;;;;;;;;6240151;22;20395;-94
2023/09/12 04:28:29;;;;;;;13.47;8.00;;;;;;;;;;6173315;23;20384;-95
2023/09/12 04:31:05;;;;;;;9.43;8.43;;;;;;;;;;6174745;23;20450;-94
2023/09/12 04:33:31;;;;;;;9.93;7.50;;;;;;;;;;6171951;23;20390;-95
2023/09/12 04:36:03;;;;;;;12.20;7.97;;;;;;;;;;6173612;23;20400;-95
2023/09/12 04:38:38;;;;;;;9.53;8.23;;;;;;;;;;6171286;23;20426;-94
2023/09/12 04:41:07;;;;;;;10.67;8.87;;;;;;;;;;6171623;23;20380;-93
2023/09/12 04:43:33;;;;;;;9.53;8.60;;;;;;;;;;6172475;23;20468;-92
2023/09/12 04:58:59;;;;;;;13.33;10.47;;;;;;;;;;6323710;22;20499;-91
2023/09/12 05:01:25;;;;;;;10.37;8.60;;;;;;;;;;6270763;22;20400;-92
2023/09/12 05:03:55;;;;;;;12.00;9.53;;;;;;;;;;6265894;22;20377;-91
2023/09/12 05:06:21;;;;;;;13.57;9.60;;;;;;;;;;6243314;22;20391;-92
2023/09/12 05:08:49;;;;;;;16.17;8.90;;;;;;;;;;6269703;22;20731;-91
2023/09/12 05:11:15;;;;;;;12.77;10.13;;;;;;;;;;6295468;22;20396;-91
2023/09/12 05:13:41;;;;;;;14.00;9.40;;;;;;;;;;6269635;22;20375;-92
2023/09/12 05:16:08;;;;;;;11.37;8.73;;;;;;;;;;6269727;22;20436;-93
2023/09/12 05:18:34;;;;;;;16.80;8.63;;;;;;;;;;6295288;22;20700;-93
2023/09/12 05:23:43;;;;;;;11.20;8.33;;;;;;;;;;6318859;22;20454;-92
2023/09/12 05:26:13;;;;;;;12.77;9.30;;;;;;;;;;6270456;22;20665;-93
2023/09/12 05:28:39;;;;;;;12.57;8.60;;;;;;;;;;6270869;22;20380;-92
2023/09/12 05:31:05;;;;;;;11.33;9.43;;;;;;;;;;6270607;22;20470;-86
2023/09/12 05:33:31;;;;;;;13.60;9.17;;;;;;;;;;6273098;22;20392;-93
2023/09/12 05:35:57;;;;;;;11.50;9.67;;;;;;;;;;6273080;22;20391;-92
2023/09/12 05:38:25;;;;;;;10.10;9.17;;;;;;;;;;6270330;22;20387;-93
2023/09/12 05:40:51;;;;;;;10.87;8.63;;;;;;;;;;6273040;22;20376;-93
2023/09/12 05:43:17;;;;;;;10.10;9.10;;;;;;;;;;6271010;22;20391;-93
2023/09/12 05:45:44;;;;;;;11.23;9.37;;;;;;;;;;6271568;22;20388;-92
2023/09/12 05:48:10;;;;;;;11.27;9.13;;;;;;;;;;6298707;22;20429;-93
2023/09/12 05:50:39;;;;;;;11.00;9.50;;;;;;;;;;6269381;22;20408;-94
2023/09/12 05:53:05;;;;;;;14.20;11.37;;;;;;;;;;6269398;22;20748;-93
2023/09/12 05:55:31;;;;;;;11.50;9.70;;;;;;;;;;6274478;22;20381;-92
2023/09/12 05:57:57;;;;;;;16.10;10.10;;;;;;;;;;6268050;22;20463;-93
2023/09/12 06:00:23;;;;;;;11.13;9.80;;;;;;;;;;6272722;22;20375;-93
2023/09/12 06:02:49;;;;;;;16.73;10.00;;;;;;;;;;6269629;22;20460;-93
2023/09/12 06:05:16;;;;;;;15.63;9.83;;;;;;;;;;6269046;22;20380;-93
2023/09/12 06:07:42;;;;;;;11.50;10.40;;;;;;;;;;6268065;22;20407;-93
2023/09/12 06:10:08;;;;;;;14.40;11.27;;;;;;;;;;6267585;22;20404;-93
2023/09/12 06:12:36;;;;;;;12.27;11.07;;;;;;;;;;6267604;22;20396;-93
2023/09/12 06:15:02;;;;;;;12.77;9.87;;;;;;;;;;6270190;22;20948;-93
2023/09/12 06:17:28;;;;;;;14.70;10.30;;;;;;;;;;6268156;22;20426;-92
2023/09/12 06:19:55;;;;;;;11.43;10.13;;;;;;;;;;6270503;22;20407;-94
2023/09/12 06:22:22;;;;;;;12.37;10.07;;;;;;;;;;6268527;22;20427;-93
2023/09/12 06:24:48;;;;;;;11.90;9.23;;;;;;;;;;6274885;22;20463;-93
2023/09/12 06:27:18;;;;;;;17.10;11.10;;;;;;;;;;6293643;22;20365;-92
2023/09/12 06:29:45;;;;;;;11.50;9.17;;;;;;;;;;6270512;22;20911;-93
2023/09/12 06:32:11;;;;;;;11.73;9.63;;;;;;;;;;6268471;22;20461;-94
2023/09/12 06:34:37;;;;;;;11.90;9.63;;;;;;;;;;6267725;22;20876;-93
2023/09/12 06:37:03;;;;;;;12.23;11.03;;;;;;;;;;6267072;22;20392;-94
2023/09/12 06:39:29;;;;;;;14.50;9.70;;;;;;;;;;6271040;22;20403;-92
2023/09/12 06:41:55;;;;;;;9.53;8.63;;;;;;;;;;6255066;22;20960;-93
2023/09/12 06:44:23;;;;;;;11.50;10.23;;;;;;;;;;6258935;22;20390;-94
2023/09/12 06:46:49;;;;;;;15.23;10.60;;;;;;;;;;6195450;23;20451;-94
2023/09/12 06:49:17;;;;;;;15.43;10.70;;;;;;;;;;6173402;23;20408;-93
2023/09/12 06:51:43;;;;;;;16.27;10.73;;;;;;;;;;6197014;23;21014;-94
2023/09/12 06:54:12;;;;;;;10.40;8.97;;;;;;;;;;6174543;23;20380;-93
2023/09/12 06:56:41;;;;;;;10.47;9.57;;;;;;;;;;6174924;23;20375;-94
2023/09/12 06:59:19;;;;;;;11.87;10.57;;;;;;;;;;6176371;23;20360;-94
2023/09/12 07:01:45;;;;;;;16.40;10.57;;;;;;;;;;6193982;23;20424;-93
2023/09/12 07:04:14;;;;;;;11.43;10.23;;;;;;;;;;6171801;23;20364;-94
2023/09/12 07:06:40;;;;;;;13.37;9.23;;;;;;;;;;6194993;23;20380;-94
2023/09/12 07:09:11;;;;;;;10.90;8.90;;;;;;;;;;6171656;23;20443;-94
2023/09/12 07:11:37;;;;;;;11.43;9.50;;;;;;;;;;6172245;23;21264;-93
2023/09/12 07:14:03;;;;;;;13.70;10.87;;;;;;;;;;6203345;23;20383;-93
2023/09/12 07:16:31;;;;;;;10.93;9.33;;;;;;;;;;6199469;23;20639;-94
2023/09/12 07:18:58;;;;;;;11.37;9.73;;;;;;;;;;6229584;23;20387;-94
2023/09/12 07:21:24;;;;;;;10.97;9.40;;;;;;;;;;6229666;23;20371;-94
2023/09/12 07:23:50;;;;;;;12.67;10.57;;;;;;;;;;6253329;22;20454;-93
2023/09/12 07:26:16;;;;;;;11.30;9.20;;;;;;;;;;6271077;22;20377;-94
2023/09/12 07:28:55;;;;;;;11.60;9.87;;;;;;;;;;6273450;22;20395;-93
2023/09/12 07:31:21;;;;;;;15.93;9.73;;;;;;;;;;6295678;22;20556;-93
2023/09/12 07:34:14;;;;;;;10.90;9.67;;;;;;;;;;6274807;22;20376;-93
2023/09/12 07:36:40;;;;;;;12.93;9.97;;;;;;;;;;6229066;22;20499;-93
2023/09/12 07:39:10;;;;;;;14.20;10.20;;;;;;;;;;6297961;22;20444;-94
2023/09/12 07:41:36;;;;;;;13.10;10.23;;;;;;;;;;6270210;22;20856;-93
2023/09/12 07:44:04;;;;;;;10.90;9.70;;;;;;;;;;6270377;22;20423;-93
2023/09/12 07:46:30;;;;;;;11.80;10.07;;;;;;;;;;6270042;22;20364;-93
2023/09/12 07:48:59;;;;;;;15.37;10.33;;;;;;;;;;6271425;22;20448;-93
2023/09/12 07:51:25;;;;;;;11.90;10.60;;;;;;;;;;6270591;22;20423;-92
2023/09/12 07:53:51;;;;;;;12.40;11.20;;;;;;;;;;6268132;22;20420;-92
2023/09/12 07:56:17;;;;;;;13.80;9.53;;;;;;;;;;6266060;22;20926;-93
2023/09/12 07:58:44;;;;;;;18.17;10.00;;;;;;;;;;6267507;22;20410;-93
2023/09/12 08:01:10;;;;;;;14.27;10.57;;;;;;;;;;6268158;22;20429;-94
2023/09/12 08:03:53;;;;;;;14.10;9.77;;;;;;;;;;6271204;22;20353;-94
2023/09/12 08:06:19;;;;;;;11.63;10.27;;;;;;;;;;6245948;22;20395;-93
2023/09/12 08:08:45;;;;;;;15.37;11.07;;;;;;;;;;6269139;22;20386;-93
2023/09/12 08:11:11;;;;;;;15.07;11.13;;;;;;;;;;6270270;22;20432;-93
2023/09/12 08:13:40;;;;;;;14.60;11.87;;;;;;;;;;6269511;22;20377;-93
2023/09/12 08:16:09;;;;;;;15.07;11.37;;;;;;;;;;6267843;22;20384;-93
2023/09/12 08:18:41;;;;;;;13.27;10.77;;;;;;;;;;6266543;22;20391;-93
2023/09/12 08:21:07;;;;;;;14.53;11.43;;;;;;;;;;6292740;22;20381;-94
2023/09/12 08:23:34;;;;;;;12.43;11.10;;;;;;;;;;6265130;22;20400;-93
2023/09/12 08:26:00;;;;;;;13.40;10.97;;;;;;;;;;6266081;22;20376;-91
2023/09/12 08:28:26;;;;;;;13.43;11.63;;;;;;;;;;6266284;22;20392;-93
2023/09/12 08:30:52;;;;;;;13.77;10.70;;;;;;;;;;6267679;22;20424;-93
2023/09/12 08:33:18;;;;;;;11.53;10.37;;;;;;;;;;6265057;22;20452;-95
2023/09/12 08:35:44;;;;;;;12.23;9.90;;;;;;;;;;6265175;22;20392;-93
2023/09/12 08:38:12;;;;;;;15.70;10.17;;;;;;;;;;6265543;22;20392;-94
2023/09/12 08:40:38;;;;;;;11.83;10.73;;;;;;;;;;6267731;22;20399;-93
2023/09/12 08:43:04;;;;;;;15.10;10.37;;;;;;;;;;6264316;22;20392;-94
2023/09/12 08:45:31;;;;;;;12.80;9.80;;;;;;;;;;6267057;22;20420;-93
2023/09/12 08:47:57;;;;;;;13.87;10.87;;;;;;;;;;6264148;22;20398;-94
2023/09/12 08:50:24;;;;;;;12.33;10.10;;;;;;;;;;6265491;22;20428;-93
2023/09/12 08:52:50;;;;;;;11.90;10.70;;;;;;;;;;6265252;22;20396;-93
2023/09/12 08:55:16;;;;;;;14.67;10.87;;;;;;;;;;6274576;22;20411;-94
2023/09/12 08:57:42;;;;;;;11.23;10.10;;;;;;;;;;6268025;22;20449;-93
2023/09/12 09:00:09;;;;;;;11.20;10.07;;;;;;;;;;6268084;22;20368;-95
2023/09/12 09:02:36;;;;;;;10.67;9.37;;;;;;;;;;6268411;22;20377;-94
2023/09/12 09:05:05;;;;;;;10.07;9.17;;;;;;;;;;6269453;22;20372;-93
2023/09/12 09:07:31;;;;;;;13.10;9.80;;;;;;;;;;6267000;22;20431;-94
2023/09/12 09:09:57;;;;;;;13.03;10.27;;;;;;;;;;6293647;22;20399;-94
2023/09/12 09:12:23;;;;;;;11.63;10.53;;;;;;;;;;6267030;22;20384;-93
2023/09/12 09:14:49;;;;;;;18.23;10.97;;;;;;;;;;6275662;22;20388;-94
2023/09/12 09:17:15;;;;;;;11.70;10.23;;;;;;;;;;6266473;22;20455;-93
2023/09/12 09:22:54;;;;;;;10.73;9.73;;;;;;;;;;6317213;22;20455;-93
2023/09/12 09:28:26;;;;;;;11.77;10.63;;;;;;;;;;6315182;22;20405;-93
2023/09/12 09:30:54;;;;;;;12.63;9.73;;;;;;;;;;6266315;22;20412;-94
2023/09/12 09:33:23;;;;;;;10.17;9.13;;;;;;;;;;6196694;23;20430;-93
2023/09/12 09:35:51;;;;;;;14.37;11.23;;;;;;;;;;6136406;23;20748;-93
2023/09/12 09:38:19;;;;;;;17.10;10.80;;;;;;;;;;6115667;23;20399;-94
2023/09/12 09:40:45;;;;;;;12.90;10.30;;;;;;;;;;6080348;23;20394;-93
2023/09/12 09:46:32;;;;;;;11.80;10.70;;;;;;;;;;6060799;23;20379;-92
2023/09/12 09:48:59;;;;;;;11.40;10.23;;;;;;;;;;6087388;23;20458;-93
2023/09/12 09:51:26;;;;;;;15.03;11.00;;;;;;;;;;6082951;23;20425;-91
2023/09/12 09:53:52;;;;;;;12.47;9.37;;;;;;;;;;6088109;23;20481;-91
2023/09/12 09:56:18;;;;;;;11.33;10.20;;;;;;;;;;6054833;23;20424;-92
2023/09/12 09:58:59;;;;;;;12.00;10.80;;;;;;;;;;6030353;23;20384;-93
2023/09/12 10:01:29;;;;;;;10.57;9.57;;;;;;;;;;6055911;23;20383;-92
2023/09/12 10:03:58;;;;;;;14.87;9.90;;;;;;;;;;6035852;23;20917;-95
2023/09/12 10:06:24;;;;;;;11.77;10.57;;;;;;;;;;6021242;23;20428;-94
2023/09/12 10:08:53;;;;;;;10.60;9.50;;;;;;;;;;6058747;23;20395;-96
2023/09/12 10:11:19;;;;;;;12.00;10.00;;;;;;;;;;6071373;23;21000;-95
2023/09/12 10:13:55;;;;;;;11.50;10.30;;;;;;;;;;6089849;23;20397;-95
2023/09/12 10:16:25;;;;;;;13.50;10.20;;;;;;;;;;6089523;23;20861;-95
2023/09/12 10:19:10;;;;;;;12.40;9.90;;;;;;;;;;6095331;23;20377;-93
2023/09/12 10:21:36;;;;;;;12.13;8.93;;;;;;;;;;6111875;23;20386;-94
2023/09/12 10:24:04;;;;;;;9.60;8.50;;;;;;;;;;6087026;23;20420;-93
2023/09/12 10:26:31;;;;;;;10.00;8.60;;;;;;;;;;6094887;23;20393;-94
2023/09/12 10:28:57;;;;;;;13.57;11.13;;;;;;;;;;6115481;23;20416;-93
2023/09/12 10:31:24;;;;;;;10.07;9.03;;;;;;;;;;6142108;23;20928;-93
2023/09/12 10:33:50;;;;;;;12.70;10.67;;;;;;;;;;6144772;23;20361;-94
2023/09/12 10:36:16;;;;;;;12.50;9.80;;;;;;;;;;6124963;23;20404;-94
2023/09/12 10:38:44;;;;;;;14.63;9.33;;;;;;;;;;6231459;23;20418;-93
2023/09/12 10:41:11;;;;;;;10.70;9.60;;;;;;;;;;6205685;23;20397;-92
2023/09/12 10:43:37;;;;;;;10.10;8.90;;;;;;;;;;6200902;23;20421;-93
2023/09/12 10:46:03;;;;;;;15.87;8.43;;;;;;;;;;6203491;23;20456;-93
2023/09/12 10:48:31;;;;;;;18.40;9.37;;;;;;;;;;6203101;23;20389;-93
2023/09/12 10:51:00;;;;;;;15.60;10.20;;;;;;;;;;6210471;23;20437;-93
2023/09/12 10:53:29;;;;;;;21.03;10.17;;;;;;;;;;6230628;23;20374;-93
2023/09/12 10:55:59;;;;;;;12.53;9.80;;;;;;;;;;6208943;23;20386;-93
2023/09/12 10:58:25;;;;;;;11.50;9.80;;;;;;;;;;6203212;23;20390;-94
2023/09/12 11:01:12;;;;;;;11.70;9.50;;;;;;;;;;6203904;23;20401;-93
2023/09/12 11:03:39;;;;;;;11.50;9.87;;;;;;;;;;6230802;23;20379;-93
2023/09/12 11:06:05;;;;;;;13.77;9.50;;;;;;;;;;6206458;23;20385;-93
2023/09/12 11:08:37;;;;;;;13.67;9.03;;;;;;;;;;6206261;23;20370;-93
2023/09/12 11:11:19;;;;;;;9.37;8.57;;;;;;;;;;6209120;23;20418;-93
2023/09/12 11:13:46;;;;;;;16.63;9.73;;;;;;;;;;6203845;23;20405;-92
2023/09/12 11:16:17;;;;;;;12.07;9.97;;;;;;;;;;6206154;23;20389;-93
2023/09/12 11:19:03;;;;;;;13.80;9.20;;;;;;;;;;6207208;23;20401;-92
2023/09/12 11:21:33;;;;;;;13.10;9.60;;;;;;;;;;6232418;23;20375;-93
2023/09/12 11:27:08;;;;;;;13.23;9.30;;;;;;;;;;6111416;23;21256;-94
2023/09/12 11:29:48;;;;;;;11.07;9.70;;;;;;;;;;6107673;23;20406;-93
2023/09/12 11:32:25;;;;;;;10.23;9.40;;;;;;;;;;6057125;23;20395;-93
2023/09/12 11:34:51;;;;;;;10.40;9.27;;;;;;;;;;6055345;23;20717;-93
2023/09/12 11:37:24;;;;;;;10.67;9.67;;;;;;;;;;6055696;23;20407;-94
2023/09/12 11:39:52;;;;;;;13.70;8.97;;;;;;;;;;6055380;23;20416;-92
2023/09/12 11:42:19;;;;;;;11.17;10.10;;;;;;;;;;6079964;23;20411;-94
2023/09/12 11:44:45;;;;;;;10.30;9.33;;;;;;;;;;6054894;23;20468;-92
2023/09/12 11:47:12;;;;;;;10.30;9.20;;;;;;;;;;6058815;23;20384;-93
2023/09/12 11:49:39;;;;;;;9.60;8.80;;;;;;;;;;6058246;23;20424;-94
2023/09/12 11:52:09;;;;;;;11.10;10.10;;;;;;;;;;6058732;23;20434;-93
2023/09/12 11:54:35;;;;;;;10.20;9.30;;;;;;;;;;6056766;23;20384;-93
2023/09/12 11:57:02;;;;;;;10.60;9.70;;;;;;;;;;6061655;23;20768;-92
2023/09/12 11:59:28;;;;;;;9.67;8.73;;;;;;;;;;6055064;23;20443;-93
2023/09/12 12:01:54;;;;;;;9.90;9.07;;;;;;;;;;6079371;23;20415;-93
2023/09/12 12:04:25;;;;;;;12.27;9.40;;;;;;;;;;6163813;23;20411;-93
2023/09/12 12:06:51;;;;;;;11.57;10.43;;;;;;;;;;6178687;23;20463;-94
2023/09/12 12:09:21;;;;;;;8.93;7.70;;;;;;;;;;6177203;23;20384;-94
2023/09/12 12:11:47;;;;;;;9.13;8.20;;;;;;;;;;6177919;23;20442;-93
2023/09/12 12:14:16;;;;;;;10.13;9.23;;;;;;;;;;6174289;23;20411;-94
2023/09/12 12:16:43;;;;;;;13.90;9.10;;;;;;;;;;6202303;23;20390;-92
2023/09/12 12:19:11;;;;;;;10.47;9.30;;;;;;;;;;6207593;23;20386;-94
2023/09/12 12:21:37;;;;;;;10.33;8.90;;;;;;;;;;6208911;23;21004;-94
2023/09/12 12:24:04;;;;;;;10.80;9.70;;;;;;;;;;6231660;23;20406;-93
2023/09/12 12:26:32;;;;;;;12.00;8.70;;;;;;;;;;6231472;23;20424;-94
2023/09/12 12:28:59;;;;;;;10.77;9.70;;;;;;;;;;6230653;23;20432;-94
2023/09/12 12:31:26;;;;;;;11.73;8.90;;;;;;;;;;6236781;23;20424;-93
2023/09/12 12:33:57;;;;;;;10.83;9.73;;;;;;;;;;6231679;23;20385;-94
2023/09/12 12:36:23;;;;;;;11.70;8.80;;;;;;;;;;6231225;23;20442;-94
2023/09/12 12:38:49;;;;;;;10.33;9.33;;;;;;;;;;6231293;22;20389;-93
2023/09/12 12:41:16;;;;;;;9.00;8.20;;;;;;;;;;6232764;23;20379;-93
2023/09/12 12:43:42;;;;;;;10.37;9.20;;;;;;;;;;6228719;23;20405;-93
2023/09/12 12:46:12;;;;;;;11.83;8.63;;;;;;;;;;6231344;22;20378;-93
2023/09/12 12:48:41;;;;;;;10.40;9.37;;;;;;;;;;6230212;23;20427;-94
2023/09/12 12:51:13;;;;;;;9.73;8.70;;;;;;;;;;6231900;23;20453;-95
2023/09/12 12:53:39;;;;;;;9.80;8.80;;;;;;;;;;6231060;23;20405;-94
2023/09/12 12:56:07;;;;;;;10.53;9.03;;;;;;;;;;6207609;23;20398;-93
2023/09/12 12:58:34;;;;;;;11.37;8.00;;;;;;;;;;6206041;23;20405;-92
2023/09/12 13:01:02;;;;;;;8.80;8.00;;;;;;;;;;6213607;23;20382;-93
2023/09/12 13:03:28;;;;;;;12.07;9.17;;;;;;;;;;6205917;23;20465;-94
2023/09/12 13:05:54;;;;;;;13.83;7.70;;;;;;;;;;6207241;23;20452;-93
2023/09/12 13:08:20;;;;;;;8.83;7.47;;;;;;;;;;6208522;23;20452;-95
2023/09/12 13:10:51;;;;;;;9.13;8.33;;;;;;;;;;6209329;23;20925;-92
2023/09/12 13:13:20;;;;;;;12.10;7.80;;;;;;;;;;6263131;23;20347;-95
2023/09/12 13:15:46;;;;;;;9.13;8.20;;;;;;;;;;6210331;23;20394;-93
2023/09/12 13:18:12;;;;;;;9.67;7.10;;;;;;;;;;6210554;23;20401;-94
2023/09/12 13:20:37;;;;;;;9.63;8.63;;;;;;;;;;6210918;23;20394;-93
2023/09/12 13:23:04;;;;;;;12.40;8.37;;;;;;;;;;6211347;23;20444;-93
2023/09/12 13:25:30;;;;;;;10.00;7.97;;;;;;;;;;6209543;23;20422;-94
2023/09/12 13:27:59;;;;;;;11.27;8.93;;;;;;;;;;6209164;23;20484;-93
2023/09/12 13:30:36;;;;;;;11.73;8.80;;;;;;;;;;6208779;22;20417;-94
2023/09/12 13:33:03;;;;;;;10.70;8.57;;;;;;;;;;6159426;23;20951;-94
2023/09/12 13:35:29;;;;;;;11.20;8.60;;;;;;;;;;6208586;23;20447;-95
2023/09/12 13:37:55;;;;;;;13.00;7.97;;;;;;;;;;6207729;23;20390;-94
2023/09/12 13:40:23;;;;;;;10.00;8.20;;;;;;;;;;6208836;22;20424;-93
2023/09/12 13:42:49;;;;;;;8.90;7.50;;;;;;;;;;6210293;22;20366;-94
2023/09/12 13:45:17;;;;;;;19.87;9.37;;;;;;;;;;6208690;22;20366;-94
2023/09/12 13:47:43;;;;;;;8.47;7.77;;;;;;;;;;6208614;22;20382;-94
2023/09/12 13:50:09;;;;;;;8.90;8.00;;;;;;;;;;6209068;22;20422;-93
2023/09/12 13:52:35;;;;;;;12.13;8.17;;;;;;;;;;6209428;23;20386;-93
2023/09/12 13:55:03;;;;;;;9.90;8.23;;;;;;;;;;6231963;23;20386;-94
2023/09/12 13:57:29;;;;;;;10.57;7.73;;;;;;;;;;6209899;23;20378;-95
2023/09/12 13:59:55;;;;;;;11.40;9.63;;;;;;;;;;6208619;23;20390;-94
2023/09/12 14:02:21;;;;;;;9.43;8.50;;;;;;;;;;6215730;23;20410;-95
2023/09/12 14:04:47;;;;;;;13.70;8.93;;;;;;;;;;6208331;23;20397;-94
2023/09/12 14:07:13;;;;;;;8.77;7.87;;;;;;;;;;6210903;23;20367;-95
2023/09/12 14:09:39;;;;;;;11.03;7.43;;;;;;;;;;6210998;22;20429;-94
2023/09/12 14:12:07;;;;;;;11.90;8.70;;;;;;;;;;6209707;23;20430;-94
2023/09/12 14:14:33;;;;;;;10.47;9.37;;;;;;;;;;6233119;23;20457;-95
2023/09/12 14:17:00;;;;;;;9.50;8.70;;;;;;;;;;6210233;23;20865;-95
2023/09/12 14:19:27;;;;;;;9.27;8.37;;;;;;;;;;6234496;23;20375;-95
2023/09/12 14:21:53;;;;;;;9.57;8.67;;;;;;;;;;6208433;23;20393;-94
2023/09/12 14:24:19;;;;;;;9.50;8.60;;;;;;;;;;6204389;23;20403;-94
2023/09/12 14:26:47;;;;;;;9.50;7.40;;;;;;;;;;6208282;23;20383;-94
2023/09/12 14:29:13;;;;;;;8.67;7.77;;;;;;;;;;6204887;23;20387;-95
2023/09/12 14:31:39;;;;;;;9.07;8.00;;;;;;;;;;6202145;23;20419;-93
2023/09/12 14:34:07;;;;;;;13.27;8.70;;;;;;;;;;6202310;23;20456;-93
2023/09/12 14:36:33;;;;;;;12.73;9.07;;;;;;;;;;6207659;23;20390;-93
2023/09/12 14:38:59;;;;;;;8.90;8.10;;;;;;;;;;6203102;23;20406;-92
2023/09/12 14:41:25;;;;;;;9.63;8.67;;;;;;;;;;6202243;23;20398;-93
2023/09/12 14:43:51;;;;;;;10.40;8.50;;;;;;;;;;6203540;23;20410;-92
2023/09/12 14:46:17;;;;;;;9.90;8.23;;;;;;;;;;6206184;23;20820;-92
2023/09/12 14:48:46;;;;;;;9.63;8.80;;;;;;;;;;6209922;23;20383;-93
2023/09/12 14:51:11;;;;;;;8.87;7.87;;;;;;;;;;6203206;23;20438;-92
2023/09/12 14:53:43;;;;;;;12.57;10.07;;;;;;;;;;6207668;23;20372;-93
2023/09/12 14:56:10;;;;;;;10.50;7.10;;;;;;;;;;6204465;23;20413;-94
2023/09/12 14:58:36;;;;;;;9.87;8.80;;;;;;;;;;6209477;23;20409;-94
2023/09/12 15:01:02;;;;;;;8.43;7.57;;;;;;;;;;6204668;23;21150;-93
2023/09/12 15:03:28;;;;;;;13.13;9.73;;;;;;;;;;6203985;23;20921;-94
2023/09/12 15:05:54;;;;;;;10.60;8.47;;;;;;;;;;6202386;23;20387;-94
2023/09/12 15:08:27;;;;;;;9.87;7.60;;;;;;;;;;6210618;23;20882;-94
2023/09/12 15:10:53;;;;;;;9.40;7.90;;;;;;;;;;6227912;23;20418;-94
2023/09/12 15:13:20;;;;;;;9.23;8.20;;;;;;;;;;6205081;23;20391;-94
2023/09/12 15:15:47;;;;;;;11.70;9.10;;;;;;;;;;6150419;23;20379;-92
2023/09/12 15:18:15;;;;;;;9.93;8.73;;;;;;;;;;6171676;23;20851;-91
2023/09/12 15:20:48;;;;;;;8.63;7.70;;;;;;;;;;6149080;23;20931;-92